MOL Paramount — 3ECH9 — position and weather

sailwx.info

Track history (hours):
 
Tides and Currents Weather Stations Pressure Air Temp Water Temp Dewpoint Dewpoint Depression Visibility Wind Speed Wind Dir Waves Ship Positions

MOL Paramount

Last reported at 2017-Jan-20 13:33 UTC. Time now 2017-Jan-20 14:08 UTC.
Position N 29°41' W 095°00'.

Length 293 m; draft 11.7 m.

Type: Cargo ship. MMSI: 371519000.

Date/timePositionNaut miles runAvg speedWind from/ knotsBaromVisibWave heightAir tempDewpointWater temp
2017-Jan-20 13:33N 29°41' W 095°00'0 0.0
2017-Jan-20 11:30N 29°41' W 095°00'0 0.0
2017-Jan-20 10:33N 29°41' W 095°00'0 0.0
2017-Jan-20 09:33N 29°41' W 095°00'0 0.0
2017-Jan-20 08:32N 29°41' W 095°00'0 0.0
2017-Jan-20 07:33N 29°41' W 095°00'0 0.0
2017-Jan-20 06:32N 29°41' W 095°00'0 0.0
2017-Jan-20 05:32N 29°41' W 095°00'0 0.0
2017-Jan-20 04:32N 29°41' W 095°00'0 0.0
2017-Jan-20 03:33N 29°41' W 095°00'0 0.0
2017-Jan-20 02:32N 29°41' W 095°00'0 0.0
2017-Jan-20 01:32N 29°41' W 095°00'0 0.0
2017-Jan-20 00:33N 29°41' W 095°00'0 0.0
2017-Jan-19 23:33N 29°41' W 095°00'0 0.0
2017-Jan-19 22:32N 29°41' W 095°00'0 0.0
2017-Jan-19 21:33N 29°41' W 095°00'0 0.0
2017-Jan-19 20:32N 29°41' W 095°00'0 0.0
2017-Jan-19 19:32N 29°41' W 095°00'0 0.0
2017-Jan-19 18:32N 29°41' W 095°00'0 0.0
2017-Jan-19 17:33N 29°41' W 095°00'0 0.0
2017-Jan-19 16:33N 29°41' W 095°00'0 0.0
2017-Jan-19 15:32N 29°41' W 095°00'0 0.0
2017-Jan-19 14:33N 29°41' W 095°00'0 0.0
2017-Jan-19 13:32N 29°41' W 095°00'0 0.0
2017-Jan-19 12:33N 29°41' W 095°00'0 0.0
2017-Jan-19 11:32N 29°41' W 095°00'0 0.0
2017-Jan-19 10:32N 29°41' W 095°00'0 0.0
2017-Jan-19 09:30N 29°41' W 095°00'0 0.0
2017-Jan-19 08:32N 29°41' W 095°00'0 0.0
2017-Jan-19 07:33N 29°41' W 095°00'3 2.8
2017-Jan-19 06:33N 29°39' W 094°58'1010.4
2017-Jan-19 05:33N 29°30' W 094°52'  
2017-Jan-13 16:07N 19°43' W 096°10'711.6
2017-Jan-13 15:33N 19°37' W 096°07'1211.6
2017-Jan-13 14:33N 19°27' W 096°02'1111.1
2017-Jan-13 13:33N 19°17' W 095°57'8 8.5
2017-Jan-13 12:34N 19°12' W 096°05'3 3.0
2017-Jan-13 11:33N 19°13' W 096°08'0 0.0
2017-Jan-13 10:33N 19°13' W 096°08'0 0.0
2017-Jan-13 09:33N 19°13' W 096°08'0 0.0
2017-Jan-13 08:33N 19°13' W 096°08'0 0.0
2017-Jan-13 07:33N 19°13' W 096°08'0 0.0
2017-Jan-13 06:33N 19°13' W 096°08'0 0.0
2017-Jan-13 05:33N 19°13' W 096°08'0 0.0
2017-Jan-13 04:33N 19°13' W 096°08'0 0.0
2017-Jan-13 03:33N 19°13' W 096°08'0 0.0
2017-Jan-13 02:33N 19°13' W 096°08'0 0.0
2017-Jan-13 01:33N 19°13' W 096°08'0 0.0
2017-Jan-13 00:33N 19°13' W 096°08'0 0.0
2017-Jan-12 23:33N 19°13' W 096°08'0 0.0
2017-Jan-12 22:33N 19°13' W 096°08'0 0.0
2017-Jan-12 21:33N 19°13' W 096°08'0 0.0
2017-Jan-12 20:33N 19°13' W 096°08'0 0.0
2017-Jan-12 19:30N 19°13' W 096°08'0 0.1
2017-Jan-12 18:33N 19°13' W 096°08'7 7.1
2017-Jan-12 17:33N 19°13' W 096°00'1312.8
2017-Jan-12 16:33N 19°15' W 095°47'1716.8
2017-Jan-12 15:33N 19°18' W 095°30'  
Track history (hours):
 
Tides and Currents Weather Stations Pressure Air Temp Water Temp Dewpoint Dewpoint Depression Visibility Wind Speed Wind Dir Waves Ship Positions

MOL Paramount

Last reported at 2017-Jan-20 13:33 UTC. Time now 2017-Jan-20 14:08 UTC.
Position N 29°41' W 095°00'.

Length 293 m; draft 11.7 m.

Type: Cargo ship. MMSI: 371519000.

Date/timePositionNaut miles runAvg speedWind from/ knotsBaromVisibWave heightAir tempDewpointWater temp
2017-Jan-20 13:33N 29°41' W 095°00'0 0.0
2017-Jan-20 11:30N 29°41' W 095°00'0 0.0
2017-Jan-20 10:33N 29°41' W 095°00'0 0.0
2017-Jan-20 09:33N 29°41' W 095°00'0 0.0
2017-Jan-20 08:32N 29°41' W 095°00'0 0.0
2017-Jan-20 07:33N 29°41' W 095°00'0 0.0
2017-Jan-20 06:32N 29°41' W 095°00'0 0.0
2017-Jan-20 05:32N 29°41' W 095°00'0 0.0
2017-Jan-20 04:32N 29°41' W 095°00'0 0.0
2017-Jan-20 03:33N 29°41' W 095°00'0 0.0
2017-Jan-20 02:32N 29°41' W 095°00'0 0.0
2017-Jan-20 01:32N 29°41' W 095°00'0 0.0
2017-Jan-20 00:33N 29°41' W 095°00'0 0.0
2017-Jan-19 23:33N 29°41' W 095°00'0 0.0
2017-Jan-19 22:32N 29°41' W 095°00'0 0.0
2017-Jan-19 21:33N 29°41' W 095°00'0 0.0
2017-Jan-19 20:32N 29°41' W 095°00'0 0.0
2017-Jan-19 19:32N 29°41' W 095°00'0 0.0
2017-Jan-19 18:32N 29°41' W 095°00'0 0.0
2017-Jan-19 17:33N 29°41' W 095°00'0 0.0
2017-Jan-19 16:33N 29°41' W 095°00'0 0.0
2017-Jan-19 15:32N 29°41' W 095°00'0 0.0
2017-Jan-19 14:33N 29°41' W 095°00'0 0.0
2017-Jan-19 13:32N 29°41' W 095°00'0 0.0
2017-Jan-19 12:33N 29°41' W 095°00'0 0.0
2017-Jan-19 11:32N 29°41' W 095°00'0 0.0
2017-Jan-19 10:32N 29°41' W 095°00'0 0.0
2017-Jan-19 09:30N 29°41' W 095°00'0 0.0
2017-Jan-19 08:32N 29°41' W 095°00'0 0.0
2017-Jan-19 07:33N 29°41' W 095°00'3 2.8
2017-Jan-19 06:33N 29°39' W 094°58'1010.4
2017-Jan-19 05:33N 29°30' W 094°52'  
2017-Jan-13 16:07N 19°43' W 096°10'711.6
2017-Jan-13 15:33N 19°37' W 096°07'1211.6
2017-Jan-13 14:33N 19°27' W 096°02'1111.1
2017-Jan-13 13:33N 19°17' W 095°57'8 8.5
2017-Jan-13 12:34N 19°12' W 096°05'3 3.0
2017-Jan-13 11:33N 19°13' W 096°08'0 0.0
2017-Jan-13 10:33N 19°13' W 096°08'0 0.0
2017-Jan-13 09:33N 19°13' W 096°08'0 0.0
2017-Jan-13 08:33N 19°13' W 096°08'0 0.0
2017-Jan-13 07:33N 19°13' W 096°08'0 0.0
2017-Jan-13 06:33N 19°13' W 096°08'0 0.0
2017-Jan-13 05:33N 19°13' W 096°08'0 0.0
2017-Jan-13 04:33N 19°13' W 096°08'0 0.0
2017-Jan-13 03:33N 19°13' W 096°08'0 0.0
2017-Jan-13 02:33N 19°13' W 096°08'0 0.0
2017-Jan-13 01:33N 19°13' W 096°08'0 0.0
2017-Jan-13 00:33N 19°13' W 096°08'0 0.0
2017-Jan-12 23:33N 19°13' W 096°08'0 0.0
2017-Jan-12 22:33N 19°13' W 096°08'0 0.0
2017-Jan-12 21:33N 19°13' W 096°08'0 0.0
2017-Jan-12 20:33N 19°13' W 096°08'0 0.0
2017-Jan-12 19:30N 19°13' W 096°08'0 0.1
2017-Jan-12 18:33N 19°13' W 096°08'7 7.1
2017-Jan-12 17:33N 19°13' W 096°00'1312.8
2017-Jan-12 16:33N 19°15' W 095°47'1716.8
2017-Jan-12 15:33N 19°18' W 095°30'  

Dump ship's entire track history